createdAt,value
2022-08-02T04:04:41.111Z,95213.00
2022-08-02T04:09:43.077Z,95225.00
2022-08-02T04:14:45.749Z,95219.00
2022-08-02T04:19:55.400Z,95212.00
2022-08-02T04:25:03.762Z,95224.00
2022-08-02T04:30:07.679Z,95213.00
2022-08-02T04:35:25.279Z,95203.00
2022-08-02T04:40:27.452Z,95214.00
2022-08-02T04:45:31.103Z,95219.00
2022-08-02T04:50:34.040Z,95224.00
2022-08-02T04:55:36.105Z,95234.00
2022-08-02T05:00:38.516Z,95250.00
2022-08-02T05:05:40.558Z,95231.00
2022-08-02T05:10:42.532Z,95248.00
2022-08-02T05:15:44.551Z,95228.00
2022-08-02T05:20:46.510Z,95246.00
2022-08-02T05:25:48.511Z,95247.00
2022-08-02T05:30:50.807Z,95243.00
2022-08-02T05:35:53.123Z,95245.00
2022-08-02T05:40:55.324Z,95239.00
2022-08-02T05:45:58.488Z,95240.00
2022-08-02T05:51:06.358Z,95252.00
2022-08-02T05:56:36.297Z,95246.00
2022-08-02T06:01:40.814Z,95253.00
2022-08-02T06:06:44.808Z,95250.00
2022-08-02T06:12:01.778Z,95257.00
2022-08-02T06:17:05.450Z,95264.00
2022-08-02T06:22:35.712Z,95258.00
2022-08-02T06:27:40.812Z,95247.00
2022-08-02T06:32:45.185Z,95264.00
2022-08-02T06:37:59.658Z,95268.00
2022-08-02T06:43:33.498Z,95275.00
2022-08-02T06:48:36.853Z,95266.00
2022-08-02T06:53:39.079Z,95265.00
2022-08-02T06:58:41.210Z,95255.00
2022-08-02T07:03:43.249Z,95279.00
2022-08-02T07:08:59.442Z,95278.00
2022-08-02T07:14:07.651Z,95263.00
2022-08-02T07:19:09.668Z,95259.00
2022-08-02T07:24:40.081Z,95263.00
2022-08-02T07:29:46.054Z,95274.00
2022-08-02T07:34:52.820Z,95268.00
2022-08-02T07:39:55.462Z,95263.00
2022-08-02T07:44:57.612Z,95256.00
2022-08-02T07:49:59.579Z,95269.00
2022-08-02T07:55:01.685Z,95264.00
2022-08-02T08:00:06.662Z,95266.00
2022-08-02T08:05:14.786Z,95246.00
2022-08-02T08:10:16.774Z,95251.00
2022-08-02T08:15:18.711Z,95253.00
2022-08-02T08:20:20.643Z,95256.00
2022-08-02T08:25:22.647Z,95226.00
2022-08-02T08:30:29.181Z,95231.00
2022-08-02T08:35:31.145Z,95233.00
2022-08-02T08:40:33.388Z,95255.00
2022-08-02T08:45:35.670Z,95255.00
2022-08-02T08:50:46.631Z,95263.00
2022-08-02T08:55:49.566Z,95247.00
2022-08-02T09:00:51.742Z,95259.00
2022-08-02T09:05:58.036Z,95255.00
2022-08-02T09:11:00.202Z,95261.00
2022-08-02T09:16:11.476Z,95270.00
2022-08-02T09:21:17.352Z,95283.00
2022-08-02T09:26:23.206Z,95286.00
2022-08-02T09:31:25.714Z,95280.00
2022-08-02T09:36:42.814Z,95289.00
2022-08-02T09:41:45.880Z,95281.00
2022-08-02T09:46:47.874Z,95281.00
2022-08-02T09:51:53.366Z,95281.00
2022-08-02T09:57:01.891Z,95271.00
2022-08-02T10:02:14.781Z,95283.00
2022-08-02T10:07:21.580Z,95278.00
2022-08-02T10:12:24.810Z,95273.00
2022-08-02T10:17:26.864Z,95266.00
2022-08-02T10:22:29.486Z,95262.00
2022-08-02T10:27:55.130Z,95253.00
2022-08-02T10:32:59.274Z,95258.00
2022-08-02T10:38:04.709Z,95262.00
2022-08-02T10:43:06.684Z,95251.00
2022-08-02T10:48:16.601Z,95249.00
2022-08-02T10:53:25.518Z,95239.00
2022-08-02T10:58:32.401Z,95218.00
2022-08-02T11:03:44.800Z,95231.00
2022-08-02T11:08:46.753Z,95190.00
2022-08-02T11:14:08.795Z,95216.00
2022-08-02T11:19:11.917Z,95215.00
2022-08-02T11:24:38.688Z,95213.00
2022-08-02T11:29:43.064Z,95217.00
2022-08-02T11:34:49.199Z,95222.00
2022-08-02T11:40:43.124Z,95216.00
2022-08-02T11:45:45.507Z,95234.00
2022-08-02T11:50:47.480Z,95219.00
2022-08-02T11:55:49.448Z,95216.00
2022-08-02T12:00:53.655Z,95212.00
2022-08-02T12:06:06.129Z,95213.00
2022-08-02T12:11:08.593Z,95202.00
2022-08-02T12:16:31.429Z,95237.00
2022-08-02T12:21:33.699Z,95206.00
2022-08-02T12:26:47.500Z,95205.00
2022-08-02T12:31:57.635Z,95183.00
2022-08-02T12:37:09.322Z,95210.00
2022-08-02T12:42:16.138Z,95188.00
2022-08-02T12:47:19.088Z,95190.00
2022-08-02T12:52:24.768Z,95197.00
2022-08-02T12:57:26.835Z,95190.00
2022-08-02T13:02:28.815Z,95178.00
2022-08-02T13:07:30.985Z,95188.00
2022-08-02T13:12:34.425Z,95197.00
2022-08-02T13:17:37.180Z,95198.00
2022-08-02T13:22:39.255Z,95181.00
2022-08-02T13:27:54.983Z,95152.00
2022-08-02T13:33:00.977Z,95184.00
2022-08-02T13:38:04.456Z,95179.00
2022-08-02T13:43:06.469Z,95170.00
2022-08-02T13:48:16.824Z,95161.00
2022-08-02T13:53:20.271Z,95163.00
2022-08-02T13:58:22.222Z,95153.00
2022-08-02T14:03:25.631Z,95154.00
2022-08-02T14:08:47.801Z,95158.00
2022-08-02T14:13:49.734Z,95139.00
2022-08-02T14:18:52.848Z,95143.00
2022-08-02T14:23:54.816Z,95141.00
2022-08-02T14:28:56.853Z,95133.00
2022-08-02T14:33:58.851Z,95125.00
2022-08-02T14:39:01.955Z,95146.00
2022-08-02T14:44:04.717Z,95141.00
2022-08-02T14:49:08.814Z,95149.00
2022-08-02T14:54:13.217Z,95153.00
2022-08-02T14:59:16.720Z,95140.00
2022-08-02T15:04:18.676Z,95135.00
2022-08-02T15:09:21.953Z,95141.00
2022-08-02T15:14:26.313Z,95139.00
2022-08-02T15:19:36.103Z,95148.00
2022-08-02T15:24:51.631Z,95133.00
2022-08-02T15:29:59.860Z,95119.00
2022-08-02T15:35:01.975Z,95130.00
2022-08-02T15:40:04.565Z,95113.00
2022-08-02T15:45:07.176Z,95131.00
2022-08-02T15:50:15.343Z,95110.00
2022-08-02T15:55:17.784Z,95121.00
2022-08-02T16:00:20.476Z,95124.00
2022-08-02T16:05:24.521Z,95141.00
2022-08-02T16:10:26.688Z,95133.00
2022-08-02T16:15:28.674Z,95137.00
2022-08-02T16:20:30.635Z,95128.00
2022-08-02T16:25:32.652Z,95133.00
2022-08-02T16:30:35.236Z,95109.00
2022-08-02T16:35:37.192Z,95120.00
2022-08-02T16:40:39.157Z,95104.00
2022-08-02T16:45:41.198Z,95108.00
2022-08-02T16:50:47.395Z,95112.00
2022-08-02T16:55:53.212Z,95099.00
2022-08-02T17:00:55.372Z,95121.00
2022-08-02T17:05:57.510Z,95110.00
2022-08-02T17:11:03.372Z,95091.00
2022-08-02T17:16:26.229Z,95123.00
2022-08-02T17:21:28.788Z,95107.00
2022-08-02T17:26:30.809Z,95104.00
2022-08-02T17:31:37.278Z,95115.00
2022-08-02T17:36:49.835Z,95113.00
2022-08-02T17:41:52.265Z,95124.00
2022-08-02T17:46:54.247Z,95117.00
2022-08-02T17:52:48.234Z,95120.00
2022-08-02T17:57:19.373Z,95121.00
2022-08-02T18:02:21.541Z,95136.00
2022-08-02T18:07:25.094Z,95127.00
2022-08-02T18:12:27.700Z,95117.00
2022-08-02T18:17:29.851Z,95110.00
2022-08-02T18:22:31.777Z,95110.00
2022-08-02T18:27:34.284Z,95124.00
2022-08-02T18:34:00.467Z,95115.00
2022-08-02T18:38:04.083Z,95117.00
2022-08-02T18:43:14.398Z,95110.00
2022-08-02T18:48:17.465Z,95133.00
2022-08-02T18:53:39.296Z,95130.00
2022-08-02T18:58:41.836Z,95125.00
2022-08-02T19:03:49.301Z,95137.00
2022-08-02T19:09:04.924Z,95132.00
2022-08-02T19:14:13.494Z,95138.00
2022-08-02T19:19:22.172Z,95146.00
2022-08-02T19:24:24.479Z,95141.00
2022-08-02T19:29:42.766Z,95128.00
2022-08-02T19:34:51.634Z,95151.00
2022-08-02T19:39:53.583Z,95146.00
2022-08-02T19:44:55.454Z,95160.00
2022-08-02T19:49:58.622Z,95158.00
2022-08-02T19:56:01.097Z,95162.00
2022-08-02T20:00:23.486Z,95176.00
